sensor_id;sensor_type;location;lat;lon;timestamp;P1;durP1;ratioP1;P2;durP2;ratioP2
85809;SDS011;76863;40.816;43.814;2024-03-07T00:01:27;17.55;;;9.60;;
85809;SDS011;76863;40.816;43.814;2024-03-07T00:03:53;17.15;;;10.20;;
85809;SDS011;76863;40.816;43.814;2024-03-07T00:06:18;16.17;;;9.35;;
85809;SDS011;76863;40.816;43.814;2024-03-07T00:08:46;16.95;;;9.50;;
85809;SDS011;76863;40.816;43.814;2024-03-07T00:11:11;20.33;;;9.95;;
85809;SDS011;76863;40.816;43.814;2024-03-07T00:13:37;18.67;;;10.30;;
85809;SDS011;76863;40.816;43.814;2024-03-07T00:16:03;18.00;;;9.48;;
85809;SDS011;76863;40.816;43.814;2024-03-07T00:18:29;17.13;;;9.90;;
85809;SDS011;76863;40.816;43.814;2024-03-07T00:20:55;19.60;;;10.57;;
85809;SDS011;76863;40.816;43.814;2024-03-07T00:23:23;17.40;;;10.75;;
85809;SDS011;76863;40.816;43.814;2024-03-07T00:25:49;16.95;;;9.80;;
85809;SDS011;76863;40.816;43.814;2024-03-07T00:28:15;16.25;;;10.63;;
85809;SDS011;76863;40.816;43.814;2024-03-07T00:30:45;23.73;;;10.50;;
85809;SDS011;76863;40.816;43.814;2024-03-07T00:33:14;16.80;;;10.30;;
85809;SDS011;76863;40.816;43.814;2024-03-07T00:35:42;16.20;;;10.20;;
85809;SDS011;76863;40.816;43.814;2024-03-07T00:38:09;16.30;;;9.85;;
85809;SDS011;76863;40.816;43.814;2024-03-07T00:40:35;17.25;;;10.02;;
85809;SDS011;76863;40.816;43.814;2024-03-07T00:43:01;19.00;;;11.23;;
85809;SDS011;76863;40.816;43.814;2024-03-07T00:45:26;15.90;;;10.00;;
85809;SDS011;76863;40.816;43.814;2024-03-07T00:47:52;18.40;;;10.32;;
85809;SDS011;76863;40.816;43.814;2024-03-07T00:50:18;17.75;;;10.40;;
85809;SDS011;76863;40.816;43.814;2024-03-07T00:52:46;18.63;;;10.60;;
85809;SDS011;76863;40.816;43.814;2024-03-07T00:55:13;14.45;;;10.02;;
85809;SDS011;76863;40.816;43.814;2024-03-07T00:57:40;21.23;;;10.80;;
85809;SDS011;76863;40.816;43.814;2024-03-07T01:00:05;19.67;;;11.13;;
85809;SDS011;76863;40.816;43.814;2024-03-07T01:02:41;14.57;;;8.73;;
85809;SDS011;76863;40.816;43.814;2024-03-07T01:05:11;17.45;;;10.05;;
85809;SDS011;76863;40.816;43.814;2024-03-07T01:07:38;19.65;;;10.82;;
85809;SDS011;76863;40.816;43.814;2024-03-07T01:10:05;16.30;;;9.65;;
85809;SDS011;76863;40.816;43.814;2024-03-07T01:12:31;16.75;;;9.32;;
85809;SDS011;76863;40.816;43.814;2024-03-07T01:14:59;18.90;;;10.48;;
85809;SDS011;76863;40.816;43.814;2024-03-07T01:17:26;18.40;;;10.07;;
85809;SDS011;76863;40.816;43.814;2024-03-07T01:19:52;15.40;;;9.20;;
85809;SDS011;76863;40.816;43.814;2024-03-07T01:22:17;15.02;;;10.05;;
85809;SDS011;76863;40.816;43.814;2024-03-07T01:24:43;16.38;;;10.05;;
85809;SDS011;76863;40.816;43.814;2024-03-07T01:27:10;16.90;;;9.88;;
85809;SDS011;76863;40.816;43.814;2024-03-07T01:29:35;15.35;;;9.15;;
85809;SDS011;76863;40.816;43.814;2024-03-07T01:32:01;19.60;;;9.63;;
85809;SDS011;76863;40.816;43.814;2024-03-07T01:34:28;18.38;;;10.25;;
85809;SDS011;76863;40.816;43.814;2024-03-07T01:36:54;16.95;;;9.90;;
85809;SDS011;76863;40.816;43.814;2024-03-07T01:39:19;14.88;;;8.50;;
85809;SDS011;76863;40.816;43.814;2024-03-07T01:41:45;16.17;;;9.02;;
85809;SDS011;76863;40.816;43.814;2024-03-07T01:44:11;14.20;;;9.10;;
85809;SDS011;76863;40.816;43.814;2024-03-07T01:46:36;16.98;;;8.85;;
85809;SDS011;76863;40.816;43.814;2024-03-07T01:49:02;17.98;;;9.65;;
85809;SDS011;76863;40.816;43.814;2024-03-07T01:51:28;16.00;;;10.07;;
85809;SDS011;76863;40.816;43.814;2024-03-07T01:53:54;19.23;;;9.75;;
85809;SDS011;76863;40.816;43.814;2024-03-07T01:56:19;18.15;;;10.07;;
85809;SDS011;76863;40.816;43.814;2024-03-07T01:58:47;15.48;;;9.52;;
85809;SDS011;76863;40.816;43.814;2024-03-07T02:01:13;15.30;;;9.55;;
85809;SDS011;76863;40.816;43.814;2024-03-07T02:03:40;15.60;;;9.60;;
85809;SDS011;76863;40.816;43.814;2024-03-07T02:06:07;19.20;;;9.52;;
85809;SDS011;76863;40.816;43.814;2024-03-07T02:08:33;15.55;;;9.38;;
85809;SDS011;76863;40.816;43.814;2024-03-07T02:11:00;14.65;;;9.60;;
85809;SDS011;76863;40.816;43.814;2024-03-07T02:13:26;19.25;;;9.43;;
85809;SDS011;76863;40.816;43.814;2024-03-07T02:15:52;15.88;;;9.02;;
85809;SDS011;76863;40.816;43.814;2024-03-07T02:18:19;14.82;;;8.77;;
85809;SDS011;76863;40.816;43.814;2024-03-07T02:20:45;16.10;;;10.05;;
85809;SDS011;76863;40.816;43.814;2024-03-07T02:23:11;16.65;;;9.20;;
85809;SDS011;76863;40.816;43.814;2024-03-07T02:25:37;17.85;;;9.80;;
85809;SDS011;76863;40.816;43.814;2024-03-07T02:28:04;17.92;;;9.45;;
85809;SDS011;76863;40.816;43.814;2024-03-07T02:30:30;17.17;;;10.60;;
85809;SDS011;76863;40.816;43.814;2024-03-07T02:32:59;16.70;;;10.40;;
85809;SDS011;76863;40.816;43.814;2024-03-07T02:35:32;16.63;;;9.98;;
85809;SDS011;76863;40.816;43.814;2024-03-07T02:37:59;18.40;;;9.82;;
85809;SDS011;76863;40.816;43.814;2024-03-07T02:40:25;18.80;;;10.68;;
85809;SDS011;76863;40.816;43.814;2024-03-07T02:42:50;20.35;;;10.93;;
85809;SDS011;76863;40.816;43.814;2024-03-07T02:45:16;14.70;;;10.70;;
85809;SDS011;76863;40.816;43.814;2024-03-07T02:47:42;16.73;;;11.00;;
85809;SDS011;76863;40.816;43.814;2024-03-07T02:50:09;16.25;;;9.20;;
85809;SDS011;76863;40.816;43.814;2024-03-07T02:52:36;15.52;;;9.85;;
85809;SDS011;76863;40.816;43.814;2024-03-07T02:55:01;19.70;;;11.13;;
85809;SDS011;76863;40.816;43.814;2024-03-07T02:57:30;17.58;;;9.90;;
85809;SDS011;76863;40.816;43.814;2024-03-07T02:59:56;18.77;;;10.68;;
85809;SDS011;76863;40.816;43.814;2024-03-07T03:02:22;13.73;;;9.10;;
85809;SDS011;76863;40.816;43.814;2024-03-07T03:04:48;16.10;;;8.32;;
85809;SDS011;76863;40.816;43.814;2024-03-07T03:07:13;12.82;;;8.55;;
85809;SDS011;76863;40.816;43.814;2024-03-07T03:09:39;16.00;;;8.00;;
85809;SDS011;76863;40.816;43.814;2024-03-07T03:12:08;15.73;;;8.93;;
85809;SDS011;76863;40.816;43.814;2024-03-07T03:14:35;14.20;;;8.43;;
85809;SDS011;76863;40.816;43.814;2024-03-07T03:17:03;14.25;;;8.40;;
85809;SDS011;76863;40.816;43.814;2024-03-07T03:19:29;12.48;;;8.02;;
85809;SDS011;76863;40.816;43.814;2024-03-07T03:21:55;13.70;;;8.40;;
85809;SDS011;76863;40.816;43.814;2024-03-07T03:24:21;12.90;;;8.20;;
85809;SDS011;76863;40.816;43.814;2024-03-07T03:26:47;17.05;;;8.63;;
85809;SDS011;76863;40.816;43.814;2024-03-07T03:29:13;12.98;;;6.93;;
85809;SDS011;76863;40.816;43.814;2024-03-07T03:31:39;12.43;;;7.97;;
85809;SDS011;76863;40.816;43.814;2024-03-07T03:34:05;13.68;;;8.55;;
85809;SDS011;76863;40.816;43.814;2024-03-07T03:36:31;17.02;;;8.13;;
85809;SDS011;76863;40.816;43.814;2024-03-07T03:38:57;14.63;;;9.02;;
85809;SDS011;76863;40.816;43.814;2024-03-07T03:41:22;12.75;;;8.13;;
85809;SDS011;76863;40.816;43.814;2024-03-07T03:43:48;18.33;;;8.40;;
85809;SDS011;76863;40.816;43.814;2024-03-07T03:46:14;12.57;;;8.18;;
85809;SDS011;76863;40.816;43.814;2024-03-07T03:48:40;12.63;;;8.30;;
85809;SDS011;76863;40.816;43.814;2024-03-07T03:51:09;13.68;;;7.85;;
85809;SDS011;76863;40.816;43.814;2024-03-07T03:53:38;14.63;;;7.70;;
85809;SDS011;76863;40.816;43.814;2024-03-07T03:56:04;14.32;;;9.00;;
85809;SDS011;76863;40.816;43.814;2024-03-07T03:58:31;13.43;;;7.43;;
85809;SDS011;76863;40.816;43.814;2024-03-07T04:00:57;11.13;;;7.57;;
85809;SDS011;76863;40.816;43.814;2024-03-07T04:03:26;13.10;;;7.30;;
85809;SDS011;76863;40.816;43.814;2024-03-07T04:05:51;13.05;;;6.93;;
85809;SDS011;76863;40.816;43.814;2024-03-07T04:08:17;10.50;;;6.68;;
85809;SDS011;76863;40.816;43.814;2024-03-07T04:10:45;12.63;;;7.15;;
85809;SDS011;76863;40.816;43.814;2024-03-07T04:13:11;12.95;;;7.13;;
85809;SDS011;76863;40.816;43.814;2024-03-07T04:15:36;13.68;;;6.85;;
85809;SDS011;76863;40.816;43.814;2024-03-07T04:18:02;11.40;;;6.50;;
85809;SDS011;76863;40.816;43.814;2024-03-07T04:20:28;11.60;;;7.38;;
85809;SDS011;76863;40.816;43.814;2024-03-07T04:22:54;13.02;;;7.63;;
85809;SDS011;76863;40.816;43.814;2024-03-07T04:25:21;16.38;;;11.30;;
85809;SDS011;76863;40.816;43.814;2024-03-07T04:27:56;13.40;;;7.88;;
85809;SDS011;76863;40.816;43.814;2024-03-07T04:30:23;15.02;;;8.77;;
85809;SDS011;76863;40.816;43.814;2024-03-07T04:32:49;14.82;;;7.78;;
85809;SDS011;76863;40.816;43.814;2024-03-07T04:35:15;23.98;;;9.95;;
85809;SDS011;76863;40.816;43.814;2024-03-07T04:37:40;17.95;;;10.07;;
85809;SDS011;76863;40.816;43.814;2024-03-07T04:40:07;14.48;;;9.68;;
85809;SDS011;76863;40.816;43.814;2024-03-07T04:42:47;14.68;;;9.25;;
85809;SDS011;76863;40.816;43.814;2024-03-07T04:45:16;15.75;;;10.27;;
85809;SDS011;76863;40.816;43.814;2024-03-07T04:47:45;21.48;;;11.23;;
85809;SDS011;76863;40.816;43.814;2024-03-07T04:50:14;14.95;;;9.05;;
85809;SDS011;76863;40.816;43.814;2024-03-07T04:52:42;16.15;;;9.50;;
85809;SDS011;76863;40.816;43.814;2024-03-07T04:55:09;14.93;;;7.20;;
85809;SDS011;76863;40.816;43.814;2024-03-07T04:57:36;9.32;;;6.85;;
85809;SDS011;76863;40.816;43.814;2024-03-07T05:00:05;11.25;;;6.85;;
85809;SDS011;76863;40.816;43.814;2024-03-07T05:02:32;14.25;;;6.72;;
85809;SDS011;76863;40.816;43.814;2024-03-07T05:04:58;11.57;;;6.72;;
85809;SDS011;76863;40.816;43.814;2024-03-07T05:07:24;12.57;;;7.18;;
85809;SDS011;76863;40.816;43.814;2024-03-07T05:09:50;11.40;;;6.68;;
85809;SDS011;76863;40.816;43.814;2024-03-07T05:12:16;10.77;;;6.60;;
85809;SDS011;76863;40.816;43.814;2024-03-07T05:14:41;11.73;;;5.78;;
85809;SDS011;76863;40.816;43.814;2024-03-07T05:17:07;8.50;;;5.78;;
85809;SDS011;76863;40.816;43.814;2024-03-07T05:19:35;9.20;;;5.93;;
85809;SDS011;76863;40.816;43.814;2024-03-07T05:22:01;9.02;;;5.07;;
85809;SDS011;76863;40.816;43.814;2024-03-07T05:24:30;10.32;;;5.00;;
85809;SDS011;76863;40.816;43.814;2024-03-07T05:26:58;9.95;;;5.22;;
85809;SDS011;76863;40.816;43.814;2024-03-07T05:29:24;7.15;;;5.13;;
85809;SDS011;76863;40.816;43.814;2024-03-07T05:31:49;11.35;;;5.40;;
85809;SDS011;76863;40.816;43.814;2024-03-07T05:34:15;9.95;;;5.00;;
85809;SDS011;76863;40.816;43.814;2024-03-07T05:36:47;9.15;;;4.68;;
85809;SDS011;76863;40.816;43.814;2024-03-07T05:39:13;12.20;;;5.07;;
85809;SDS011;76863;40.816;43.814;2024-03-07T05:41:40;14.10;;;6.85;;
85809;SDS011;76863;40.816;43.814;2024-03-07T05:44:06;10.68;;;5.07;;
85809;SDS011;76863;40.816;43.814;2024-03-07T05:46:40;10.43;;;5.78;;
85809;SDS011;76863;40.816;43.814;2024-03-07T05:49:11;8.07;;;5.20;;
85809;SDS011;76863;40.816;43.814;2024-03-07T05:51:37;8.35;;;5.22;;
85809;SDS011;76863;40.816;43.814;2024-03-07T05:54:03;8.23;;;4.80;;
85809;SDS011;76863;40.816;43.814;2024-03-07T05:56:34;8.57;;;4.85;;
85809;SDS011;76863;40.816;43.814;2024-03-07T05:59:01;8.20;;;4.90;;
85809;SDS011;76863;40.816;43.814;2024-03-07T06:01:29;8.38;;;4.88;;
85809;SDS011;76863;40.816;43.814;2024-03-07T06:03:58;7.43;;;4.72;;
85809;SDS011;76863;40.816;43.814;2024-03-07T06:08:50;9.57;;;5.03;;
85809;SDS011;76863;40.816;43.814;2024-03-07T06:11:16;6.57;;;4.80;;
85809;SDS011;76863;40.816;43.814;2024-03-07T06:13:46;8.00;;;4.78;;
85809;SDS011;76863;40.816;43.814;2024-03-07T06:16:12;6.93;;;4.45;;
85809;SDS011;76863;40.816;43.814;2024-03-07T06:18:41;6.53;;;4.97;;
85809;SDS011;76863;40.816;43.814;2024-03-07T06:21:14;7.60;;;4.95;;
85809;SDS011;76863;40.816;43.814;2024-03-07T06:23:40;8.40;;;5.00;;
85809;SDS011;76863;40.816;43.814;2024-03-07T06:26:05;6.53;;;4.95;;
85809;SDS011;76863;40.816;43.814;2024-03-07T06:28:38;7.13;;;4.85;;
85809;SDS011;76863;40.816;43.814;2024-03-07T06:31:04;6.47;;;4.45;;
85809;SDS011;76863;40.816;43.814;2024-03-07T06:33:33;8.20;;;4.85;;
85809;SDS011;76863;40.816;43.814;2024-03-07T06:35:59;5.80;;;4.63;;
85809;SDS011;76863;40.816;43.814;2024-03-07T06:38:26;7.47;;;4.82;;
85809;SDS011;76863;40.816;43.814;2024-03-07T06:40:52;7.95;;;5.18;;
85809;SDS011;76863;40.816;43.814;2024-03-07T06:43:18;10.88;;;5.72;;
85809;SDS011;76863;40.816;43.814;2024-03-07T06:45:44;7.68;;;4.78;;
85809;SDS011;76863;40.816;43.814;2024-03-07T06:48:11;6.07;;;3.90;;
85809;SDS011;76863;40.816;43.814;2024-03-07T06:50:39;8.40;;;5.32;;
85809;SDS011;76863;40.816;43.814;2024-03-07T06:53:07;5.95;;;3.83;;
85809;SDS011;76863;40.816;43.814;2024-03-07T06:55:34;4.72;;;3.83;;
85809;SDS011;76863;40.816;43.814;2024-03-07T06:58:00;5.43;;;4.05;;
85809;SDS011;76863;40.816;43.814;2024-03-07T07:00:29;5.25;;;3.60;;
85809;SDS011;76863;40.816;43.814;2024-03-07T07:02:57;6.10;;;4.82;;
85809;SDS011;76863;40.816;43.814;2024-03-07T07:05:23;6.05;;;4.30;;
85809;SDS011;76863;40.816;43.814;2024-03-07T07:07:48;5.03;;;3.88;;
85809;SDS011;76863;40.816;43.814;2024-03-07T07:10:14;5.95;;;3.50;;
85809;SDS011;76863;40.816;43.814;2024-03-07T07:15:13;5.53;;;3.63;;
85809;SDS011;76863;40.816;43.814;2024-03-07T07:17:41;6.30;;;4.28;;
85809;SDS011;76863;40.816;43.814;2024-03-07T07:20:07;5.30;;;4.03;;
85809;SDS011;76863;40.816;43.814;2024-03-07T07:22:39;5.78;;;3.97;;
85809;SDS011;76863;40.816;43.814;2024-03-07T07:25:08;6.20;;;4.28;;
85809;SDS011;76863;40.816;43.814;2024-03-07T07:27:48;5.43;;;3.85;;
85809;SDS011;76863;40.816;43.814;2024-03-07T07:30:18;4.90;;;3.72;;
85809;SDS011;76863;40.816;43.814;2024-03-07T07:33:13;5.72;;;4.00;;
85809;SDS011;76863;40.816;43.814;2024-03-07T07:35:40;7.00;;;5.00;;
85809;SDS011;76863;40.816;43.814;2024-03-07T07:38:05;8.30;;;5.05;;
85809;SDS011;76863;40.816;43.814;2024-03-07T07:40:32;5.10;;;3.92;;
85809;SDS011;76863;40.816;43.814;2024-03-07T07:42:58;6.40;;;4.20;;
85809;SDS011;76863;40.816;43.814;2024-03-07T07:45:26;5.78;;;3.85;;
85809;SDS011;76863;40.816;43.814;2024-03-07T07:47:52;5.57;;;4.15;;
85809;SDS011;76863;40.816;43.814;2024-03-07T07:50:19;5.95;;;4.25;;
85809;SDS011;76863;40.816;43.814;2024-03-07T07:52:55;12.30;;;9.85;;
85809;SDS011;76863;40.816;43.814;2024-03-07T07:55:23;6.88;;;4.57;;
85809;SDS011;76863;40.816;43.814;2024-03-07T07:57:51;7.30;;;5.40;;
85809;SDS011;76863;40.816;43.814;2024-03-07T08:00:21;8.40;;;5.75;;
85809;SDS011;76863;40.816;43.814;2024-03-07T08:02:53;8.25;;;5.57;;
85809;SDS011;76863;40.816;43.814;2024-03-07T08:05:20;10.85;;;5.65;;
85809;SDS011;76863;40.816;43.814;2024-03-07T08:07:51;15.57;;;8.80;;
85809;SDS011;76863;40.816;43.814;2024-03-07T08:10:18;16.83;;;7.80;;
85809;SDS011;76863;40.816;43.814;2024-03-07T08:12:45;13.20;;;7.35;;
85809;SDS011;76863;40.816;43.814;2024-03-07T08:15:12;15.85;;;8.07;;
85809;SDS011;76863;40.816;43.814;2024-03-07T08:17:41;16.35;;;8.85;;
85809;SDS011;76863;40.816;43.814;2024-03-07T08:20:11;29.15;;;12.25;;
85809;SDS011;76863;40.816;43.814;2024-03-07T08:22:41;25.73;;;14.00;;
85809;SDS011;76863;40.816;43.814;2024-03-07T08:25:11;28.83;;;12.13;;
85809;SDS011;76863;40.816;43.814;2024-03-07T08:27:38;19.17;;;9.63;;
85809;SDS011;76863;40.816;43.814;2024-03-07T08:30:05;12.23;;;6.68;;
85809;SDS011;76863;40.816;43.814;2024-03-07T08:32:35;9.48;;;5.50;;
85809;SDS011;76863;40.816;43.814;2024-03-07T08:35:02;11.35;;;6.78;;
85809;SDS011;76863;40.816;43.814;2024-03-07T08:37:41;10.50;;;6.45;;
85809;SDS011;76863;40.816;43.814;2024-03-07T08:40:09;9.52;;;6.60;;
85809;SDS011;76863;40.816;43.814;2024-03-07T08:42:40;14.18;;;7.38;;
85809;SDS011;76863;40.816;43.814;2024-03-07T08:45:07;12.40;;;6.03;;
85809;SDS011;76863;40.816;43.814;2024-03-07T08:47:36;9.43;;;6.72;;
85809;SDS011;76863;40.816;43.814;2024-03-07T08:50:03;7.75;;;5.50;;
85809;SDS011;76863;40.816;43.814;2024-03-07T08:52:33;7.90;;;5.30;;
85809;SDS011;76863;40.816;43.814;2024-03-07T08:55:03;7.90;;;4.93;;
85809;SDS011;76863;40.816;43.814;2024-03-07T08:57:29;6.15;;;4.13;;
85809;SDS011;76863;40.816;43.814;2024-03-07T08:59:55;5.88;;;3.90;;
85809;SDS011;76863;40.816;43.814;2024-03-07T09:02:21;5.68;;;4.18;;
85809;SDS011;76863;40.816;43.814;2024-03-07T09:04:48;8.98;;;6.18;;
85809;SDS011;76863;40.816;43.814;2024-03-07T09:07:14;6.32;;;4.28;;
85809;SDS011;76863;40.816;43.814;2024-03-07T09:09:45;10.98;;;4.90;;
85809;SDS011;76863;40.816;43.814;2024-03-07T09:12:11;10.32;;;6.07;;
85809;SDS011;76863;40.816;43.814;2024-03-07T09:14:37;9.25;;;5.75;;
85809;SDS011;76863;40.816;43.814;2024-03-07T09:17:03;11.20;;;6.65;;
85809;SDS011;76863;40.816;43.814;2024-03-07T09:19:32;15.18;;;8.60;;
85809;SDS011;76863;40.816;43.814;2024-03-07T09:21:57;16.77;;;9.32;;
85809;SDS011;76863;40.816;43.814;2024-03-07T09:24:23;13.68;;;8.65;;
85809;SDS011;76863;40.816;43.814;2024-03-07T09:26:49;12.20;;;8.07;;
85809;SDS011;76863;40.816;43.814;2024-03-07T09:29:16;15.32;;;9.85;;
85809;SDS011;76863;40.816;43.814;2024-03-07T09:31:43;12.45;;;7.43;;
85809;SDS011;76863;40.816;43.814;2024-03-07T09:34:09;11.15;;;6.80;;
85809;SDS011;76863;40.816;43.814;2024-03-07T09:36:37;13.68;;;6.22;;
85809;SDS011;76863;40.816;43.814;2024-03-07T09:39:06;7.82;;;4.80;;
85809;SDS011;76863;40.816;43.814;2024-03-07T09:41:33;9.25;;;5.78;;
85809;SDS011;76863;40.816;43.814;2024-03-07T09:43:59;8.90;;;5.07;;
85809;SDS011;76863;40.816;43.814;2024-03-07T09:46:25;11.98;;;4.63;;
85809;SDS011;76863;40.816;43.814;2024-03-07T09:48:51;9.35;;;5.47;;
85809;SDS011;76863;40.816;43.814;2024-03-07T09:51:19;16.60;;;7.55;;
85809;SDS011;76863;40.816;43.814;2024-03-07T09:53:46;14.13;;;7.28;;
85809;SDS011;76863;40.816;43.814;2024-03-07T09:56:17;18.83;;;8.98;;
85809;SDS011;76863;40.816;43.814;2024-03-07T09:58:49;20.08;;;8.15;;
85809;SDS011;76863;40.816;43.814;2024-03-07T10:01:22;13.88;;;8.38;;
85809;SDS011;76863;40.816;43.814;2024-03-07T10:03:52;14.30;;;6.88;;
85809;SDS011;76863;40.816;43.814;2024-03-07T10:06:45;12.13;;;7.25;;
85809;SDS011;76863;40.816;43.814;2024-03-07T10:09:11;8.88;;;6.22;;
85809;SDS011;76863;40.816;43.814;2024-03-07T10:11:40;12.95;;;6.75;;
85809;SDS011;76863;40.816;43.814;2024-03-07T10:14:09;9.98;;;6.35;;
85809;SDS011;76863;40.816;43.814;2024-03-07T10:16:36;9.43;;;5.68;;
85809;SDS011;76863;40.816;43.814;2024-03-07T10:19:05;5.85;;;3.95;;
85809;SDS011;76863;40.816;43.814;2024-03-07T10:21:33;3.65;;;2.65;;
85809;SDS011;76863;40.816;43.814;2024-03-07T10:24:05;5.90;;;2.80;;
85809;SDS011;76863;40.816;43.814;2024-03-07T10:26:36;4.57;;;2.65;;
85809;SDS011;76863;40.816;43.814;2024-03-07T10:29:03;5.10;;;3.10;;
85809;SDS011;76863;40.816;43.814;2024-03-07T10:34:01;4.45;;;2.70;;
85809;SDS011;76863;40.816;43.814;2024-03-07T10:36:30;4.35;;;2.67;;
85809;SDS011;76863;40.816;43.814;2024-03-07T10:39:00;3.05;;;2.50;;
85809;SDS011;76863;40.816;43.814;2024-03-07T10:41:47;3.53;;;2.70;;
85809;SDS011;76863;40.816;43.814;2024-03-07T10:44:22;4.15;;;2.53;;
85809;SDS011;76863;40.816;43.814;2024-03-07T10:46:54;3.97;;;2.80;;
85809;SDS011;76863;40.816;43.814;2024-03-07T10:49:22;3.40;;;2.28;;
85809;SDS011;76863;40.816;43.814;2024-03-07T10:57:51;3.90;;;2.58;;
85809;SDS011;76863;40.816;43.814;2024-03-07T11:00:24;5.45;;;3.63;;
85809;SDS011;76863;40.816;43.814;2024-03-07T11:03:08;5.38;;;3.60;;
85809;SDS011;76863;40.816;43.814;2024-03-07T11:05:36;4.35;;;2.55;;
85809;SDS011;76863;40.816;43.814;2024-03-07T11:08:02;4.28;;;2.72;;
85809;SDS011;76863;40.816;43.814;2024-03-07T11:10:38;6.55;;;2.72;;
85809;SDS011;76863;40.816;43.814;2024-03-07T11:13:05;5.88;;;3.67;;
85809;SDS011;76863;40.816;43.814;2024-03-07T11:15:32;12.68;;;5.47;;
85809;SDS011;76863;40.816;43.814;2024-03-07T11:18:06;11.13;;;5.72;;
85809;SDS011;76863;40.816;43.814;2024-03-07T11:20:37;6.43;;;4.32;;
85809;SDS011;76863;40.816;43.814;2024-03-07T11:26:15;4.57;;;3.22;;
85809;SDS011;76863;40.816;43.814;2024-03-07T11:28:41;2.45;;;1.90;;
85809;SDS011;76863;40.816;43.814;2024-03-07T11:33:39;3.30;;;1.77;;
85809;SDS011;76863;40.816;43.814;2024-03-07T11:36:12;4.25;;;2.58;;
85809;SDS011;76863;40.816;43.814;2024-03-07T11:38:38;2.65;;;1.90;;
85809;SDS011;76863;40.816;43.814;2024-03-07T11:41:10;1.40;;;1.20;;
85809;SDS011;76863;40.816;43.814;2024-03-07T11:43:39;6.80;;;1.77;;
85809;SDS011;76863;40.816;43.814;2024-03-07T11:46:06;3.00;;;1.90;;
85809;SDS011;76863;40.816;43.814;2024-03-07T11:48:38;2.60;;;1.65;;
85809;SDS011;76863;40.816;43.814;2024-03-07T11:51:06;1.75;;;1.30;;
85809;SDS011;76863;40.816;43.814;2024-03-07T11:53:36;1.02;;;0.75;;
85809;SDS011;76863;40.816;43.814;2024-03-07T11:56:04;1.00;;;0.63;;
85809;SDS011;76863;40.816;43.814;2024-03-07T11:58:38;2.10;;;0.98;;
85809;SDS011;76863;40.816;43.814;2024-03-07T12:01:07;1.30;;;0.80;;
85809;SDS011;76863;40.816;43.814;2024-03-07T12:03:36;1.33;;;0.80;;
85809;SDS011;76863;40.816;43.814;2024-03-07T12:06:02;0.70;;;0.52;;
85809;SDS011;76863;40.816;43.814;2024-03-07T12:08:29;0.60;;;0.47;;
85809;SDS011;76863;40.816;43.814;2024-03-07T12:10:55;0.70;;;0.50;;
85809;SDS011;76863;40.816;43.814;2024-03-07T12:13:21;0.52;;;0.22;;
85809;SDS011;76863;40.816;43.814;2024-03-07T12:15:48;0.57;;;0.30;;
85809;SDS011;76863;40.816;43.814;2024-03-07T12:18:16;4.13;;;0.50;;
85809;SDS011;76863;40.816;43.814;2024-03-07T12:20:43;2.38;;;0.60;;
85809;SDS011;76863;40.816;43.814;2024-03-07T12:23:15;1.02;;;0.60;;
85809;SDS011;76863;40.816;43.814;2024-03-07T12:25:44;1.63;;;0.90;;
85809;SDS011;76863;40.816;43.814;2024-03-07T12:28:11;1.60;;;0.73;;
85809;SDS011;76863;40.816;43.814;2024-03-07T12:30:49;2.90;;;0.73;;
85809;SDS011;76863;40.816;43.814;2024-03-07T12:33:16;1.75;;;0.95;;
85809;SDS011;76863;40.816;43.814;2024-03-07T12:35:43;0.80;;;0.45;;
85809;SDS011;76863;40.816;43.814;2024-03-07T12:38:09;0.57;;;0.45;;
85809;SDS011;76863;40.816;43.814;2024-03-07T12:40:36;0.70;;;0.45;;
85809;SDS011;76863;40.816;43.814;2024-03-07T12:43:12;0.70;;;0.50;;
85809;SDS011;76863;40.816;43.814;2024-03-07T12:45:57;1.00;;;0.65;;
85809;SDS011;76863;40.816;43.814;2024-03-07T12:48:24;1.95;;;0.85;;
85809;SDS011;76863;40.816;43.814;2024-03-07T12:50:50;1.38;;;0.80;;
85809;SDS011;76863;40.816;43.814;2024-03-07T12:53:20;1.27;;;0.73;;
85809;SDS011;76863;40.816;43.814;2024-03-07T12:58:12;0.73;;;0.57;;
85809;SDS011;76863;40.816;43.814;2024-03-07T13:00:38;1.02;;;0.50;;
85809;SDS011;76863;40.816;43.814;2024-03-07T13:03:06;0.70;;;0.50;;
85809;SDS011;76863;40.816;43.814;2024-03-07T13:05:34;2.88;;;1.48;;
85809;SDS011;76863;40.816;43.814;2024-03-07T13:07:59;1.25;;;0.70;;
85809;SDS011;76863;40.816;43.814;2024-03-07T13:10:25;3.92;;;1.85;;
85809;SDS011;76863;40.816;43.814;2024-03-07T13:12:51;2.47;;;1.00;;
85809;SDS011;76863;40.816;43.814;2024-03-07T13:15:17;2.08;;;1.33;;
85809;SDS011;76863;40.816;43.814;2024-03-07T13:17:43;2.55;;;1.70;;
85809;SDS011;76863;40.816;43.814;2024-03-07T13:20:10;5.47;;;2.67;;
85809;SDS011;76863;40.816;43.814;2024-03-07T13:22:43;6.30;;;3.47;;
85809;SDS011;76863;40.816;43.814;2024-03-07T13:25:22;4.15;;;2.13;;
85809;SDS011;76863;40.816;43.814;2024-03-07T13:27:56;2.45;;;1.08;;
85809;SDS011;76863;40.816;43.814;2024-03-07T13:30:27;2.45;;;1.08;;
85809;SDS011;76863;40.816;43.814;2024-03-07T13:32:54;1.73;;;0.75;;
85809;SDS011;76863;40.816;43.814;2024-03-07T13:35:24;2.50;;;1.50;;
85809;SDS011;76863;40.816;43.814;2024-03-07T13:37:53;1.30;;;0.70;;
85809;SDS011;76863;40.816;43.814;2024-03-07T13:40:26;1.77;;;0.50;;
85809;SDS011;76863;40.816;43.814;2024-03-07T13:42:56;1.10;;;0.60;;
85809;SDS011;76863;40.816;43.814;2024-03-07T13:45:26;0.60;;;0.40;;
85809;SDS011;76863;40.816;43.814;2024-03-07T13:47:55;0.55;;;0.38;;
85809;SDS011;76863;40.816;43.814;2024-03-07T13:52:49;0.60;;;0.50;;
85809;SDS011;76863;40.816;43.814;2024-03-07T13:55:48;0.40;;;0.20;;
85809;SDS011;76863;40.816;43.814;2024-03-07T14:03:58;0.40;;;0.35;;
85809;SDS011;76863;40.816;43.814;2024-03-07T14:15:56;0.98;;;0.60;;
85809;SDS011;76863;40.816;43.814;2024-03-07T14:18:59;1.00;;;0.57;;
85809;SDS011;76863;40.816;43.814;2024-03-07T14:33:09;1.70;;;0.60;;
85809;SDS011;76863;40.816;43.814;2024-03-07T14:38:25;3.45;;;1.75;;
85809;SDS011;76863;40.816;43.814;2024-03-07T14:41:01;4.00;;;1.30;;
85809;SDS011;76863;40.816;43.814;2024-03-07T14:43:28;2.28;;;1.08;;
85809;SDS011;76863;40.816;43.814;2024-03-07T14:45:54;1.67;;;0.90;;
85809;SDS011;76863;40.816;43.814;2024-03-07T14:48:21;0.47;;;0.47;;
85809;SDS011;76863;40.816;43.814;2024-03-07T14:50:47;0.70;;;0.40;;
85809;SDS011;76863;40.816;43.814;2024-03-07T14:53:13;0.50;;;0.43;;
85809;SDS011;76863;40.816;43.814;2024-03-07T14:55:42;0.65;;;0.40;;
85809;SDS011;76863;40.816;43.814;2024-03-07T14:58:08;2.60;;;0.50;;
85809;SDS011;76863;40.816;43.814;2024-03-07T15:00:38;1.70;;;0.80;;
85809;SDS011;76863;40.816;43.814;2024-03-07T15:03:07;1.67;;;0.70;;
85809;SDS011;76863;40.816;43.814;2024-03-07T15:05:35;1.52;;;0.93;;
85809;SDS011;76863;40.816;43.814;2024-03-07T15:08:01;1.48;;;1.02;;
85809;SDS011;76863;40.816;43.814;2024-03-07T15:10:29;6.57;;;3.28;;
85809;SDS011;76863;40.816;43.814;2024-03-07T15:12:57;6.47;;;2.92;;
85809;SDS011;76863;40.816;43.814;2024-03-07T15:15:23;3.88;;;1.40;;
85809;SDS011;76863;40.816;43.814;2024-03-07T15:17:55;4.13;;;1.55;;
85809;SDS011;76863;40.816;43.814;2024-03-07T15:20:25;2.50;;;1.15;;
85809;SDS011;76863;40.816;43.814;2024-03-07T15:22:56;0.90;;;0.50;;
85809;SDS011;76863;40.816;43.814;2024-03-07T15:25:25;0.98;;;0.52;;